DHL64V EGNX-EDDF
Flight info
| Callsign | DHL64V |
|---|---|
| Flight time | 1h 10m |
| Altitude | 35000 |
| Route | SAPCO1P SAPCO UY53 DTY P166 BANTO P155 SIVDA P137 REDFA DCT TACHA DCT NOLRU DCT DIXAT DIXAT1A |
| Aircraft | B738/M-SDE2E3FGHIRWXY/LB1 |
Departure
| Time | 2026-05-04 00:32 |
|---|---|
| Airport | East Midlands Airport (EGNX) |
Arrival
| Time | 2026-05-04 01:42 |
|---|---|
| Airport | Frankfurt Main Airport (EDDF) |
| Time | Latitude | Longitude | Altitude | Speed | Heading |
|---|---|---|---|---|---|
| 2026-05-04 00:10 | 52.82665 | -1.34572 | 299 ft | 0 kts | 268° |
| 2026-05-04 00:23 | 52.82665 | -1.34564 | 299 ft | 4 kts | 270° |
| 2026-05-04 00:23 | 52.82663 | -1.34527 | 300 ft | 4 kts | 288° |
| 2026-05-04 00:23 | 52.82657 | -1.34505 | 302 ft | 4 kts | 307° |
| 2026-05-04 00:24 | 52.82637 | -1.34482 | 303 ft | 1 kts | 358° |
| 2026-05-04 00:24 | 52.82637 | -1.34481 | 303 ft | 0 kts | 358° |
| 2026-05-04 00:28 | 52.82650 | -1.34482 | 300 ft | 3 kts | 358° |
| 2026-05-04 00:28 | 52.82683 | -1.34483 | 302 ft | 6 kts | 359° |
| 2026-05-04 00:28 | 52.82735 | -1.34485 | 301 ft | 9 kts | 359° |
| 2026-05-04 00:28 | 52.82810 | -1.34493 | 301 ft | 13 kts | 339° |
| 2026-05-04 00:29 | 52.82830 | -1.34646 | 300 ft | 17 kts | 269° |
| 2026-05-04 00:29 | 52.82827 | -1.34879 | 300 ft | 23 kts | 268° |
| 2026-05-04 00:29 | 52.82822 | -1.35140 | 302 ft | 18 kts | 269° |
| 2026-05-04 00:29 | 52.82872 | -1.35247 | 302 ft | 15 kts | 32° |
| 2026-05-04 00:30 | 52.82894 | -1.35149 | 303 ft | 2 kts | 89° |
| 2026-05-04 00:30 | 52.82895 | -1.35094 | 302 ft | 7 kts | 89° |
| 2026-05-04 00:30 | 52.82897 | -1.34994 | 303 ft | 10 kts | 81° |
| 2026-05-04 00:30 | 52.82949 | -1.34935 | 305 ft | 11 kts | 358° |
| 2026-05-04 00:31 | 52.83038 | -1.34936 | 304 ft | 13 kts | 7° |
| 2026-05-04 00:31 | 52.83064 | -1.34804 | 302 ft | 17 kts | 89° |
| 2026-05-04 00:31 | 52.83075 | -1.34112 | 305 ft | 116 kts | 89° |
| 2026-05-04 00:31 | 52.83062 | -1.32271 | 666 ft | 187 kts | 94° |
| 2026-05-04 00:32 | 52.82941 | -1.29998 | 1636 ft | 214 kts | 91° |
| 2026-05-04 00:32 | 52.82895 | -1.27575 | 2647 ft | 201 kts | 90° |
| 2026-05-04 00:32 | 52.82850 | -1.25285 | 3656 ft | 198 kts | 90° |
| 2026-05-04 00:32 | 52.82802 | -1.22925 | 4378 ft | 214 kts | 91° |
| 2026-05-04 00:33 | 52.82543 | -1.20432 | 5030 ft | 230 kts | 118° |
| 2026-05-04 00:33 | 52.80143 | -1.16539 | 6396 ft | 263 kts | 141° |
| 2026-05-04 00:33 | 52.78697 | -1.14481 | 7073 ft | 279 kts | 146° |
| 2026-05-04 00:34 | 52.76928 | -1.13326 | 7705 ft | 277 kts | 178° |
| 2026-05-04 00:34 | 52.75097 | -1.13936 | 8369 ft | 271 kts | 209° |
| 2026-05-04 00:34 | 52.73519 | -1.15645 | 9071 ft | 270 kts | 217° |
| 2026-05-04 00:34 | 52.72008 | -1.17506 | 9721 ft | 272 kts | 218° |
| 2026-05-04 00:35 | 52.70489 | -1.19415 | 10365 ft | 275 kts | 218° |
| 2026-05-04 00:35 | 52.68962 | -1.21349 | 11004 ft | 281 kts | 218° |
| 2026-05-04 00:35 | 52.67378 | -1.23362 | 11683 ft | 298 kts | 218° |
| 2026-05-04 00:35 | 52.65513 | -1.24995 | 12333 ft | 317 kts | 194° |
| 2026-05-04 00:36 | 52.63245 | -1.24996 | 13059 ft | 336 kts | 167° |
| 2026-05-04 00:36 | 52.61090 | -1.23383 | 13643 ft | 357 kts | 146° |
| 2026-05-04 00:36 | 52.59288 | -1.20438 | 14296 ft | 372 kts | 126° |
| 2026-05-04 00:36 | 52.58087 | -1.16614 | 15201 ft | 377 kts | 114° |
| 2026-05-04 00:37 | 52.57125 | -1.12628 | 16127 ft | 380 kts | 112° |
| 2026-05-04 00:37 | 52.56238 | -1.08465 | 17022 ft | 385 kts | 109° |
| 2026-05-04 00:37 | 52.55463 | -1.04286 | 17872 ft | 390 kts | 108° |
| 2026-05-04 00:37 | 52.54696 | -0.99933 | 18668 ft | 395 kts | 108° |
| 2026-05-04 00:38 | 52.53935 | -0.95573 | 19328 ft | 401 kts | 108° |
| 2026-05-04 00:38 | 52.53155 | -0.91152 | 20041 ft | 405 kts | 108° |
| 2026-05-04 00:38 | 52.52363 | -0.86714 | 20788 ft | 408 kts | 108° |
| 2026-05-04 00:38 | 52.51556 | -0.82253 | 21472 ft | 413 kts | 109° |
| 2026-05-04 00:39 | 52.50730 | -0.77722 | 22123 ft | 418 kts | 109° |
| 2026-05-04 00:39 | 52.49881 | -0.73091 | 22804 ft | 422 kts | 109° |
| 2026-05-04 00:39 | 52.49038 | -0.68514 | 23465 ft | 426 kts | 109° |
| 2026-05-04 00:39 | 52.48169 | -0.63809 | 24013 ft | 430 kts | 109° |
| 2026-05-04 00:40 | 52.47295 | -0.59088 | 24570 ft | 433 kts | 109° |
| 2026-05-04 00:40 | 52.46417 | -0.54358 | 25119 ft | 435 kts | 109° |
| 2026-05-04 00:40 | 52.45541 | -0.49652 | 25641 ft | 438 kts | 109° |
| 2026-05-04 00:40 | 52.44640 | -0.44820 | 26152 ft | 442 kts | 109° |
| 2026-05-04 00:41 | 52.43738 | -0.39998 | 26654 ft | 445 kts | 109° |
| 2026-05-04 00:41 | 52.42829 | -0.35147 | 27130 ft | 448 kts | 109° |
| 2026-05-04 00:41 | 52.41912 | -0.30268 | 27599 ft | 451 kts | 110° |
| 2026-05-04 00:41 | 52.40985 | -0.25350 | 28061 ft | 454 kts | 110° |
| 2026-05-04 00:42 | 52.40051 | -0.20402 | 28516 ft | 457 kts | 110° |
| 2026-05-04 00:42 | 52.39113 | -0.15449 | 28938 ft | 459 kts | 110° |
| 2026-05-04 00:42 | 52.38162 | -0.10438 | 29356 ft | 462 kts | 110° |
| 2026-05-04 00:42 | 52.37202 | -0.05388 | 29761 ft | 465 kts | 110° |
| 2026-05-04 00:43 | 52.36236 | -0.00326 | 30121 ft | 468 kts | 110° |
| 2026-05-04 00:43 | 52.35354 | 0.04789 | 30374 ft | 473 kts | 104° |
| 2026-05-04 00:43 | 52.34799 | 0.10153 | 30681 ft | 477 kts | 101° |
| 2026-05-04 00:43 | 52.34348 | 0.15498 | 31081 ft | 476 kts | 100° |
| 2026-05-04 00:44 | 52.33922 | 0.20861 | 31511 ft | 476 kts | 100° |
| 2026-05-04 00:44 | 52.33491 | 0.26218 | 31907 ft | 476 kts | 100° |
| 2026-05-04 00:44 | 52.33044 | 0.31582 | 32301 ft | 476 kts | 101° |
| 2026-05-04 00:44 | 52.32581 | 0.36949 | 32693 ft | 476 kts | 101° |
| 2026-05-04 00:45 | 52.32104 | 0.42314 | 33091 ft | 476 kts | 101° |
| 2026-05-04 00:45 | 52.31621 | 0.47656 | 33485 ft | 476 kts | 101° |
| 2026-05-04 00:45 | 52.31133 | 0.52981 | 33819 ft | 478 kts | 102° |
| 2026-05-04 00:45 | 52.30636 | 0.58365 | 34069 ft | 480 kts | 102° |
| 2026-05-04 00:46 | 52.30135 | 0.63767 | 34379 ft | 480 kts | 102° |
| 2026-05-04 00:46 | 52.29639 | 0.69115 | 34748 ft | 478 kts | 102° |
| 2026-05-04 00:46 | 52.29139 | 0.74469 | 35106 ft | 478 kts | 102° |
| 2026-05-04 00:46 | 52.28637 | 0.79830 | 35430 ft | 478 kts | 102° |
| 2026-05-04 00:47 | 52.28127 | 0.85242 | 35742 ft | 478 kts | 102° |
| 2026-05-04 00:47 | 52.27624 | 0.90562 | 36146 ft | 475 kts | 102° |
| 2026-05-04 00:47 | 52.27122 | 0.95847 | 36531 ft | 473 kts | 102° |
| 2026-05-04 00:47 | 52.26610 | 1.01202 | 36796 ft | 474 kts | 102° |
| 2026-05-04 00:48 | 52.26100 | 1.06499 | 36973 ft | 478 kts | 102° |
| 2026-05-04 00:48 | 52.25584 | 1.11842 | 37249 ft | 478 kts | 102° |
| 2026-05-04 00:48 | 52.25067 | 1.17177 | 37611 ft | 476 kts | 102° |
| 2026-05-04 00:48 | 52.24543 | 1.22556 | 37964 ft | 475 kts | 101° |
| 2026-05-04 00:49 | 52.24021 | 1.27889 | 38271 ft | 475 kts | 101° |
| 2026-05-04 00:49 | 52.23499 | 1.33184 | 38548 ft | 476 kts | 101° |
| 2026-05-04 00:49 | 52.22975 | 1.38480 | 38788 ft | 475 kts | 101° |
| 2026-05-04 00:49 | 52.22449 | 1.43774 | 39034 ft | 475 kts | 101° |
| 2026-05-04 00:50 | 52.21914 | 1.49139 | 39254 ft | 475 kts | 101° |
| 2026-05-04 00:50 | 52.21389 | 1.54369 | 39385 ft | 477 kts | 101° |
| 2026-05-04 00:50 | 52.20842 | 1.59793 | 39567 ft | 478 kts | 101° |
| 2026-05-04 00:50 | 52.20301 | 1.65140 | 39813 ft | 476 kts | 101° |
| 2026-05-04 00:51 | 52.19768 | 1.70375 | 40062 ft | 475 kts | 101° |
| 2026-05-04 00:51 | 52.19231 | 1.75638 | 40271 ft | 475 kts | 101° |
| 2026-05-04 00:51 | 52.18680 | 1.81001 | 40465 ft | 476 kts | 101° |
| 2026-05-04 00:51 | 52.18127 | 1.86365 | 40674 ft | 476 kts | 101° |
| 2026-05-04 00:52 | 52.17628 | 1.91688 | 40884 ft | 476 kts | 96° |
| 2026-05-04 00:52 | 52.17941 | 2.02497 | 40937 ft | 483 kts | 84° |
| 2026-05-04 00:53 | 52.18762 | 2.13342 | 40925 ft | 482 kts | 84° |
| 2026-05-04 00:53 | 52.19538 | 2.24142 | 40929 ft | 480 kts | 85° |
| 2026-05-04 00:54 | 52.20251 | 2.34982 | 40933 ft | 479 kts | 85° |
| 2026-05-04 00:54 | 52.20930 | 2.45749 | 40931 ft | 478 kts | 85° |
| 2026-05-04 00:55 | 52.21600 | 2.56519 | 40929 ft | 478 kts | 86° |
| 2026-05-04 00:55 | 52.22263 | 2.67287 | 40945 ft | 478 kts | 86° |
| 2026-05-04 00:56 | 52.22917 | 2.78060 | 40939 ft | 479 kts | 86° |
| 2026-05-04 00:56 | 52.23561 | 2.88835 | 40939 ft | 479 kts | 86° |
| 2026-05-04 00:57 | 52.24198 | 2.99663 | 40923 ft | 480 kts | 86° |
| 2026-05-04 00:57 | 52.24828 | 3.10507 | 40939 ft | 481 kts | 86° |
| 2026-05-04 00:58 | 52.25211 | 3.21385 | 40922 ft | 479 kts | 96° |
| 2026-05-04 00:58 | 52.23871 | 3.31940 | 40925 ft | 474 kts | 113° |
| 2026-05-04 00:59 | 52.21448 | 3.41908 | 40922 ft | 473 kts | 115° |
| 2026-05-04 00:59 | 52.18979 | 3.51875 | 40930 ft | 473 kts | 115° |
| 2026-05-04 01:00 | 52.16547 | 3.61838 | 40936 ft | 474 kts | 114° |
| 2026-05-04 01:00 | 52.14129 | 3.71820 | 40944 ft | 474 kts | 114° |
| 2026-05-04 01:01 | 52.11713 | 3.81774 | 40942 ft | 474 kts | 114° |
| 2026-05-04 01:01 | 52.09287 | 3.91720 | 40944 ft | 474 kts | 115° |
| 2026-05-04 01:02 | 52.06857 | 4.01631 | 40932 ft | 473 kts | 115° |
| 2026-05-04 01:02 | 52.04405 | 4.11583 | 40938 ft | 472 kts | 115° |
| 2026-05-04 01:03 | 52.01968 | 4.21432 | 40941 ft | 472 kts | 115° |
| 2026-05-04 01:03 | 51.99508 | 4.31326 | 40941 ft | 472 kts | 115° |
| 2026-05-04 01:04 | 51.97040 | 4.41211 | 40938 ft | 472 kts | 115° |
| 2026-05-04 01:04 | 51.94583 | 4.51009 | 40934 ft | 471 kts | 116° |
| 2026-05-04 01:05 | 51.92109 | 4.60831 | 40939 ft | 470 kts | 116° |
| 2026-05-04 01:05 | 51.89631 | 4.70622 | 40931 ft | 470 kts | 116° |
| 2026-05-04 01:06 | 51.87150 | 4.80384 | 40934 ft | 470 kts | 116° |
| 2026-05-04 01:06 | 51.84656 | 4.90155 | 40928 ft | 469 kts | 116° |
| 2026-05-04 01:07 | 51.82166 | 4.99870 | 40936 ft | 469 kts | 116° |
| 2026-05-04 01:07 | 51.79668 | 5.09571 | 40937 ft | 469 kts | 116° |
| 2026-05-04 01:08 | 51.77146 | 5.19325 | 40942 ft | 469 kts | 116° |
| 2026-05-04 01:08 | 51.74629 | 5.29020 | 40941 ft | 469 kts | 116° |
| 2026-05-04 01:09 | 51.72092 | 5.38746 | 40931 ft | 469 kts | 116° |
| 2026-05-04 01:09 | 51.69566 | 5.48393 | 40943 ft | 468 kts | 117° |
| 2026-05-04 01:10 | 51.67026 | 5.58050 | 40936 ft | 468 kts | 117° |
| 2026-05-04 01:10 | 51.64477 | 5.67699 | 40937 ft | 468 kts | 117° |
| 2026-05-04 01:11 | 51.61918 | 5.77348 | 40941 ft | 468 kts | 117° |
| 2026-05-04 01:11 | 51.59370 | 5.86913 | 40931 ft | 468 kts | 117° |
| 2026-05-04 01:12 | 51.56794 | 5.96545 | 40941 ft | 468 kts | 117° |
| 2026-05-04 01:12 | 51.54220 | 6.06131 | 40942 ft | 469 kts | 117° |
| 2026-05-04 01:13 | 51.51617 | 6.15789 | 40937 ft | 469 kts | 117° |
| 2026-05-04 01:13 | 51.49051 | 6.25400 | 40924 ft | 470 kts | 116° |
| 2026-05-04 01:14 | 51.46674 | 6.35129 | 40948 ft | 470 kts | 115° |
| 2026-05-04 01:14 | 51.44318 | 6.44904 | 40950 ft | 470 kts | 115° |
| 2026-05-04 01:15 | 51.41934 | 6.54634 | 40956 ft | 470 kts | 115° |
| 2026-05-04 01:15 | 51.39507 | 6.64418 | 40942 ft | 470 kts | 115° |
| 2026-05-04 01:15 | 51.38287 | 6.69315 | 40418 ft | 476 kts | 116° |
| 2026-05-04 01:16 | 51.37071 | 6.74188 | 39864 ft | 472 kts | 116° |
| 2026-05-04 01:16 | 51.35851 | 6.79073 | 39211 ft | 471 kts | 116° |
| 2026-05-04 01:16 | 51.34632 | 6.83941 | 38510 ft | 471 kts | 117° |
| 2026-05-04 01:16 | 51.33415 | 6.88790 | 37696 ft | 471 kts | 117° |
| 2026-05-04 01:17 | 51.32200 | 6.93620 | 36980 ft | 470 kts | 117° |
| 2026-05-04 01:17 | 51.30981 | 6.98461 | 36277 ft | 469 kts | 117° |
| 2026-05-04 01:17 | 51.29762 | 7.03291 | 35563 ft | 468 kts | 117° |
| 2026-05-04 01:17 | 51.28535 | 7.08094 | 34791 ft | 469 kts | 119° |
| 2026-05-04 01:18 | 51.26915 | 7.12539 | 33972 ft | 461 kts | 133° |
| 2026-05-04 01:18 | 51.24696 | 7.16221 | 32960 ft | 454 kts | 146° |
| 2026-05-04 01:18 | 51.22108 | 7.18998 | 32053 ft | 445 kts | 159° |
| 2026-05-04 01:18 | 51.19326 | 7.21106 | 31162 ft | 445 kts | 162° |
| 2026-05-04 01:19 | 51.16523 | 7.23213 | 30215 ft | 448 kts | 161° |
| 2026-05-04 01:19 | 51.13710 | 7.25395 | 29071 ft | 452 kts | 161° |
| 2026-05-04 01:19 | 51.10898 | 7.27630 | 27918 ft | 454 kts | 159° |
| 2026-05-04 01:19 | 51.08092 | 7.29946 | 26796 ft | 456 kts | 158° |
| 2026-05-04 01:20 | 51.05312 | 7.32264 | 26025 ft | 448 kts | 158° |
| 2026-05-04 01:20 | 51.02573 | 7.34543 | 25544 ft | 435 kts | 158° |
| 2026-05-04 01:20 | 50.99903 | 7.36748 | 25103 ft | 438 kts | 158° |
| 2026-05-04 01:20 | 50.97154 | 7.38996 | 24659 ft | 451 kts | 158° |
| 2026-05-04 01:21 | 50.94372 | 7.41276 | 24188 ft | 450 kts | 157° |
| 2026-05-04 01:21 | 50.91616 | 7.43543 | 23730 ft | 442 kts | 157° |
| 2026-05-04 01:21 | 50.88886 | 7.45784 | 23215 ft | 436 kts | 157° |
| 2026-05-04 01:21 | 50.86214 | 7.47971 | 22555 ft | 434 kts | 157° |
| 2026-05-04 01:22 | 50.83535 | 7.50157 | 21801 ft | 434 kts | 157° |
| 2026-05-04 01:22 | 50.80864 | 7.52334 | 21035 ft | 432 kts | 157° |
| 2026-05-04 01:22 | 50.78185 | 7.54518 | 20310 ft | 425 kts | 157° |
| 2026-05-04 01:22 | 50.75583 | 7.56637 | 19593 ft | 421 kts | 157° |
| 2026-05-04 01:23 | 50.72991 | 7.58744 | 18892 ft | 418 kts | 156° |
| 2026-05-04 01:23 | 50.70423 | 7.60828 | 18169 ft | 416 kts | 156° |
| 2026-05-04 01:23 | 50.67837 | 7.62925 | 17567 ft | 410 kts | 156° |
| 2026-05-04 01:23 | 50.65345 | 7.64944 | 17047 ft | 403 kts | 156° |
| 2026-05-04 01:24 | 50.62872 | 7.66945 | 16561 ft | 399 kts | 156° |
| 2026-05-04 01:24 | 50.60397 | 7.68942 | 16080 ft | 401 kts | 156° |
| 2026-05-04 01:24 | 50.57915 | 7.70943 | 15619 ft | 398 kts | 156° |
| 2026-05-04 01:24 | 50.55457 | 7.72924 | 15180 ft | 394 kts | 156° |
| 2026-05-04 01:25 | 50.53029 | 7.74877 | 14749 ft | 391 kts | 156° |
| 2026-05-04 01:25 | 50.50616 | 7.76817 | 14314 ft | 389 kts | 156° |
| 2026-05-04 01:25 | 50.48239 | 7.78730 | 13892 ft | 386 kts | 156° |
| 2026-05-04 01:25 | 50.46027 | 7.81095 | 13539 ft | 385 kts | 142° |
| 2026-05-04 01:26 | 50.44242 | 7.84251 | 13294 ft | 393 kts | 130° |
| 2026-05-04 01:26 | 50.43250 | 7.86670 | 13126 ft | 397 kts | 122° |
| 2026-05-04 01:26 | 50.41642 | 7.91780 | 12799 ft | 393 kts | 120° |
| 2026-05-04 01:26 | 50.40839 | 7.94365 | 12632 ft | 394 kts | 120° |
| 2026-05-04 01:27 | 50.39642 | 7.98202 | 12371 ft | 395 kts | 120° |
| 2026-05-04 01:27 | 50.38033 | 8.03315 | 12030 ft | 392 kts | 120° |
| 2026-05-04 01:27 | 50.37229 | 8.05855 | 11862 ft | 390 kts | 120° |
| 2026-05-04 01:27 | 50.36012 | 8.09678 | 11593 ft | 389 kts | 120° |
| 2026-05-04 01:28 | 50.34808 | 8.13446 | 11346 ft | 386 kts | 120° |
| 2026-05-04 01:28 | 50.33658 | 8.17142 | 11100 ft | 373 kts | 116° |
| 2026-05-04 01:28 | 50.32882 | 8.20916 | 10904 ft | 359 kts | 108° |
| 2026-05-04 01:28 | 50.32273 | 8.24672 | 10618 ft | 347 kts | 107° |
| 2026-05-04 01:29 | 50.31704 | 8.28261 | 10357 ft | 337 kts | 107° |
| 2026-05-04 01:29 | 50.31140 | 8.31768 | 10079 ft | 328 kts | 108° |
| 2026-05-04 01:29 | 50.30583 | 8.35163 | 9959 ft | 316 kts | 108° |
| 2026-05-04 01:29 | 50.30045 | 8.38401 | 9956 ft | 301 kts | 108° |
| 2026-05-04 01:30 | 50.29513 | 8.41552 | 9440 ft | 304 kts | 109° |
| 2026-05-04 01:30 | 50.28973 | 8.44719 | 9085 ft | 301 kts | 109° |
| 2026-05-04 01:30 | 50.28434 | 8.47874 | 8827 ft | 295 kts | 108° |
| 2026-05-04 01:30 | 50.27911 | 8.50933 | 8561 ft | 291 kts | 108° |
| 2026-05-04 01:31 | 50.27389 | 8.53976 | 8321 ft | 286 kts | 108° |
| 2026-05-04 01:31 | 50.26876 | 8.56955 | 8090 ft | 286 kts | 108° |
| 2026-05-04 01:31 | 50.26361 | 8.59941 | 7869 ft | 286 kts | 108° |
| 2026-05-04 01:31 | 50.25838 | 8.62965 | 7622 ft | 287 kts | 108° |
| 2026-05-04 01:32 | 50.25321 | 8.65961 | 7389 ft | 283 kts | 108° |
| 2026-05-04 01:32 | 50.24811 | 8.68912 | 7159 ft | 282 kts | 108° |
| 2026-05-04 01:32 | 50.24301 | 8.71849 | 6929 ft | 282 kts | 108° |
| 2026-05-04 01:32 | 50.23789 | 8.74801 | 6705 ft | 281 kts | 108° |
| 2026-05-04 01:33 | 50.23279 | 8.77736 | 6476 ft | 281 kts | 108° |
| 2026-05-04 01:33 | 50.22765 | 8.80683 | 6234 ft | 279 kts | 107° |
| 2026-05-04 01:33 | 50.22262 | 8.83566 | 5987 ft | 274 kts | 108° |
| 2026-05-04 01:33 | 50.21626 | 8.86350 | 5733 ft | 267 kts | 126° |
| 2026-05-04 01:34 | 50.20354 | 8.88293 | 5549 ft | 253 kts | 151° |
| 2026-05-04 01:34 | 50.18824 | 8.89507 | 5353 ft | 245 kts | 161° |
| 2026-05-04 01:34 | 50.17275 | 8.90526 | 5154 ft | 241 kts | 162° |
| 2026-05-04 01:34 | 50.15722 | 8.91544 | 4958 ft | 237 kts | 161° |
| 2026-05-04 01:35 | 50.14209 | 8.92466 | 4757 ft | 230 kts | 172° |
| 2026-05-04 01:35 | 50.12733 | 8.92227 | 4576 ft | 207 kts | 213° |
| 2026-05-04 01:35 | 50.11869 | 8.90648 | 4420 ft | 188 kts | 249° |
| 2026-05-04 01:35 | 50.11379 | 8.88832 | 4249 ft | 177 kts | 246° |
| 2026-05-04 01:36 | 50.10888 | 8.87113 | 4075 ft | 168 kts | 248° |
| 2026-05-04 01:36 | 50.10463 | 8.85481 | 3931 ft | 159 kts | 250° |
| 2026-05-04 01:36 | 50.10073 | 8.83912 | 3741 ft | 154 kts | 250° |
| 2026-05-04 01:36 | 50.09701 | 8.82385 | 3541 ft | 147 kts | 250° |
| 2026-05-04 01:37 | 50.09356 | 8.80959 | 3393 ft | 132 kts | 250° |
| 2026-05-04 01:37 | 50.09048 | 8.79683 | 3202 ft | 123 kts | 250° |
| 2026-05-04 01:37 | 50.08745 | 8.78425 | 3028 ft | 123 kts | 250° |
| 2026-05-04 01:37 | 50.08447 | 8.77189 | 2862 ft | 123 kts | 250° |
| 2026-05-04 01:38 | 50.08148 | 8.75944 | 2693 ft | 122 kts | 249° |
| 2026-05-04 01:38 | 50.07852 | 8.74713 | 2524 ft | 122 kts | 249° |
| 2026-05-04 01:38 | 50.07560 | 8.73498 | 2379 ft | 115 kts | 249° |
| 2026-05-04 01:38 | 50.07280 | 8.72332 | 2216 ft | 114 kts | 249° |
| 2026-05-04 01:39 | 50.07003 | 8.71178 | 2066 ft | 115 kts | 249° |
| 2026-05-04 01:39 | 50.06720 | 8.69999 | 1906 ft | 115 kts | 248° |
| 2026-05-04 01:39 | 50.06442 | 8.68839 | 1742 ft | 115 kts | 248° |
| 2026-05-04 01:39 | 50.06160 | 8.67663 | 1596 ft | 116 kts | 248° |
| 2026-05-04 01:40 | 50.05882 | 8.66490 | 1444 ft | 116 kts | 251° |
| 2026-05-04 01:40 | 50.05615 | 8.65309 | 1281 ft | 117 kts | 248° |
| 2026-05-04 01:40 | 50.05320 | 8.64109 | 1132 ft | 118 kts | 248° |
| 2026-05-04 01:40 | 50.05022 | 8.62895 | 998 ft | 124 kts | 248° |
| 2026-05-04 01:41 | 50.04719 | 8.61623 | 815 ft | 127 kts | 250° |
| 2026-05-04 01:41 | 50.04412 | 8.60328 | 637 ft | 129 kts | 250° |
| 2026-05-04 01:41 | 50.04102 | 8.59038 | 466 ft | 127 kts | 249° |
| 2026-05-04 01:41 | 50.03801 | 8.57785 | 356 ft | 121 kts | 249° |
| 2026-05-04 01:42 | 50.03536 | 8.56667 | 347 ft | 95 kts | 249° |
| 2026-05-04 01:42 | 50.03347 | 8.55894 | 350 ft | 50 kts | 249° |
| 2026-05-04 01:42 | 50.03275 | 8.55660 | 350 ft | 25 kts | 234° |
| 2026-05-04 01:42 | 50.03170 | 8.55491 | 348 ft | 22 kts | 220° |
| 2026-05-04 01:43 | 50.03067 | 8.55471 | 348 ft | 15 kts | 112° |
| 2026-05-04 01:43 | 50.03070 | 8.55537 | 345 ft | 0 kts | 71° |
| 2026-05-04 01:44 | 50.03082 | 8.55591 | 347 ft | 16 kts | 71° |
| 2026-05-04 01:44 | 50.03147 | 8.55851 | 354 ft | 32 kts | 69° |
| 2026-05-04 01:44 | 50.03201 | 8.56131 | 348 ft | 23 kts | 97° |
| 2026-05-04 01:44 | 50.03113 | 8.56219 | 351 ft | 17 kts | 159° |
| 2026-05-04 01:45 | 50.03066 | 8.56245 | 346 ft | 2 kts | 160° |
| 2026-05-04 01:45 | 50.03037 | 8.56270 | 348 ft | 7 kts | 134° |
| 2026-05-04 01:45 | 50.03046 | 8.56355 | 352 ft | 2 kts | 70° |
| 2026-05-04 01:46 | 50.03052 | 8.56380 | 347 ft | 3 kts | 70° |
| 2026-05-04 01:46 | 50.03054 | 8.56388 | 348 ft | 0 kts | 70° |
| 2026-05-04 01:46 | 50.03054 | 8.56389 | 347 ft | 0 kts | 70° |